FDX420 KATL-KJAX
Flight info
| Callsign | FDX420 |
|---|---|
| Flight time | N/A |
| Altitude | 31000 |
| Route | VRSTY3 NOKIE DUCHY OHDEA2 |
| Aircraft | B77L/H-SDE1E2E3FGHIJ2J3J4J5M1RWXY/LB1D1 |
Departure
| Time | 2026-05-03 22:49 |
|---|---|
| Airport | Hartsfield Jackson Atlanta International Airport (KATL) |
Arrival
| Time | N/A |
|---|---|
| Airport | Jacksonville International Airport (KJAX) |
| Time | Latitude | Longitude | Altitude | Speed | Heading |
|---|---|---|---|---|---|
| 2026-05-03 22:31 | 33.65442 | -84.41555 | 1011 ft | 0 kts | 32° |
| 2026-05-03 22:32 | 33.65441 | -84.41555 | 1011 ft | 0 kts | 32° |
| 2026-05-03 22:34 | 33.65441 | -84.41556 | 1011 ft | 0 kts | 32° |
| 2026-05-03 22:40 | 33.65440 | -84.41557 | 1011 ft | 1 kts | 32° |
| 2026-05-03 22:41 | 33.65426 | -84.41567 | 1011 ft | 3 kts | 32° |
| 2026-05-03 22:41 | 33.65409 | -84.41580 | 1011 ft | 3 kts | 32° |
| 2026-05-03 22:41 | 33.65396 | -84.41590 | 1011 ft | 3 kts | 39° |
| 2026-05-03 22:41 | 33.65384 | -84.41606 | 1011 ft | 3 kts | 81° |
| 2026-05-03 22:42 | 33.65386 | -84.41626 | 1011 ft | 3 kts | 121° |
| 2026-05-03 22:42 | 33.65396 | -84.41644 | 1011 ft | 1 kts | 122° |
| 2026-05-03 22:42 | 33.65399 | -84.41650 | 1011 ft | 0 kts | 122° |
| 2026-05-03 22:44 | 33.65382 | -84.41618 | 1011 ft | 6 kts | 122° |
| 2026-05-03 22:44 | 33.65360 | -84.41575 | 1011 ft | 6 kts | 122° |
| 2026-05-03 22:45 | 33.65336 | -84.41531 | 1011 ft | 7 kts | 122° |
| 2026-05-03 22:45 | 33.65311 | -84.41485 | 1011 ft | 7 kts | 128° |
| 2026-05-03 22:45 | 33.65272 | -84.41457 | 1011 ft | 7 kts | 165° |
| 2026-05-03 22:45 | 33.65225 | -84.41454 | 1011 ft | 7 kts | 179° |
| 2026-05-03 22:46 | 33.65177 | -84.41453 | 1011 ft | 8 kts | 178° |
| 2026-05-03 22:46 | 33.65134 | -84.41421 | 1011 ft | 8 kts | 122° |
| 2026-05-03 22:46 | 33.65121 | -84.41321 | 1011 ft | 16 kts | 93° |
| 2026-05-03 22:46 | 33.65119 | -84.41186 | 1010 ft | 16 kts | 90° |
| 2026-05-03 22:47 | 33.65118 | -84.41050 | 1011 ft | 16 kts | 90° |
| 2026-05-03 22:47 | 33.65055 | -84.40957 | 1011 ft | 16 kts | 175° |
| 2026-05-03 22:47 | 33.64943 | -84.40963 | 1010 ft | 16 kts | 179° |
| 2026-05-03 22:47 | 33.64852 | -84.40908 | 1010 ft | 16 kts | 104° |
| 2026-05-03 22:48 | 33.64845 | -84.40772 | 1011 ft | 16 kts | 91° |
| 2026-05-03 22:48 | 33.64841 | -84.40636 | 1011 ft | 16 kts | 98° |
| 2026-05-03 22:48 | 33.64756 | -84.40565 | 1010 ft | 16 kts | 178° |
| 2026-05-03 22:48 | 33.64681 | -84.40650 | 1008 ft | 17 kts | 261° |
| 2026-05-03 22:49 | 33.64680 | -84.40938 | 1011 ft | 69 kts | 270° |
| 2026-05-03 22:49 | 33.64679 | -84.41919 | 1014 ft | 165 kts | 271° |
| 2026-05-03 22:49 | 33.64684 | -84.43527 | 1505 ft | 203 kts | 270° |
| 2026-05-03 22:49 | 33.64749 | -84.45217 | 2738 ft | 201 kts | 279° |
| 2026-05-03 22:50 | 33.65037 | -84.46981 | 3324 ft | 227 kts | 283° |
| 2026-05-03 22:50 | 33.65390 | -84.48856 | 4036 ft | 236 kts | 283° |
| 2026-05-03 22:50 | 33.65744 | -84.50838 | 4718 ft | 249 kts | 283° |
| 2026-05-03 22:50 | 33.66098 | -84.52895 | 5586 ft | 255 kts | 283° |
| 2026-05-03 22:51 | 33.66454 | -84.55018 | 6396 ft | 262 kts | 283° |
| 2026-05-03 22:51 | 33.66786 | -84.57197 | 7146 ft | 267 kts | 275° |
| 2026-05-03 22:51 | 33.66500 | -84.59387 | 7917 ft | 276 kts | 248° |
| 2026-05-03 22:51 | 33.65577 | -84.61408 | 8712 ft | 279 kts | 242° |
| 2026-05-03 22:52 | 33.64578 | -84.63465 | 9578 ft | 283 kts | 242° |
| 2026-05-03 22:52 | 33.63520 | -84.65422 | 10325 ft | 289 kts | 232° |
| 2026-05-03 22:52 | 33.61912 | -84.67003 | 10664 ft | 315 kts | 213° |
| 2026-05-03 22:52 | 33.59910 | -84.68317 | 10877 ft | 339 kts | 209° |
| 2026-05-03 22:53 | 33.57592 | -84.69285 | 11080 ft | 368 kts | 191° |
| 2026-05-03 22:53 | 33.54988 | -84.69365 | 11725 ft | 381 kts | 175° |
| 2026-05-03 22:53 | 33.52343 | -84.68839 | 12550 ft | 388 kts | 172° |
| 2026-05-03 22:53 | 33.49674 | -84.68271 | 13426 ft | 392 kts | 172° |
| 2026-05-03 22:54 | 33.46973 | -84.67734 | 14307 ft | 395 kts | 173° |
| 2026-05-03 22:54 | 33.44277 | -84.67080 | 14964 ft | 399 kts | 163° |
| 2026-05-03 22:54 | 33.41833 | -84.65422 | 15588 ft | 411 kts | 141° |
| 2026-05-03 22:54 | 33.39950 | -84.62827 | 16326 ft | 416 kts | 122° |
| 2026-05-03 22:55 | 33.38492 | -84.59812 | 16929 ft | 423 kts | 120° |
| 2026-05-03 22:55 | 33.37046 | -84.56726 | 17614 ft | 429 kts | 120° |
| 2026-05-03 22:55 | 33.35583 | -84.53599 | 18386 ft | 432 kts | 120° |
| 2026-05-03 22:55 | 33.34102 | -84.50453 | 19048 ft | 436 kts | 121° |
| 2026-05-03 22:56 | 33.32599 | -84.47290 | 19698 ft | 440 kts | 121° |
| 2026-05-03 22:56 | 33.31071 | -84.44100 | 20327 ft | 444 kts | 121° |
| 2026-05-03 22:56 | 33.29523 | -84.40887 | 20955 ft | 448 kts | 121° |
| 2026-05-03 22:56 | 33.27960 | -84.37652 | 21589 ft | 452 kts | 121° |
| 2026-05-03 22:57 | 33.26378 | -84.34386 | 22205 ft | 456 kts | 121° |
| 2026-05-03 22:57 | 33.24782 | -84.31093 | 22826 ft | 460 kts | 121° |
| 2026-05-03 22:57 | 33.23171 | -84.27771 | 23430 ft | 464 kts | 121° |
| 2026-05-03 22:57 | 33.21544 | -84.24420 | 23945 ft | 469 kts | 122° |